createdAt,value
2017-10-11T00:00:04.498Z,8.18
2017-10-11T00:02:32.773Z,7.93
2017-10-11T00:05:01.424Z,7.43
2017-10-11T00:07:29.812Z,7.20
2017-10-11T00:09:58.076Z,8.30
2017-10-11T00:12:26.317Z,7.75
2017-10-11T00:14:54.556Z,7.80
2017-10-11T00:17:24.070Z,7.93
2017-10-11T00:19:52.345Z,7.60
2017-10-11T00:22:20.550Z,8.15
2017-10-11T00:24:48.810Z,8.13
2017-10-11T00:27:17.816Z,7.03
2017-10-11T00:29:46.111Z,7.57
2017-10-11T00:32:14.344Z,7.03
2017-10-11T00:34:43.357Z,6.93
2017-10-11T00:37:11.846Z,6.45
2017-10-11T00:39:40.102Z,6.53
2017-10-11T00:44:48.803Z,6.80
2017-10-11T00:47:17.813Z,7.03
2017-10-11T00:49:46.057Z,6.75
2017-10-11T00:52:14.279Z,7.43
2017-10-11T00:54:42.519Z,7.82
2017-10-11T00:57:11.096Z,7.65
2017-10-11T00:59:39.324Z,8.43
2017-10-11T01:02:07.541Z,6.70
2017-10-11T01:04:36.816Z,7.12
2017-10-11T01:07:05.020Z,7.45
2017-10-11T01:09:33.297Z,6.95
2017-10-11T01:12:01.552Z,6.55
2017-10-11T01:14:29.742Z,6.12
2017-10-11T01:16:57.923Z,6.95
2017-10-11T01:19:26.503Z,7.32
2017-10-11T01:21:54.729Z,6.95
2017-10-11T01:24:22.955Z,6.47
2017-10-11T01:26:51.310Z,6.40
2017-10-11T01:29:19.608Z,8.25
2017-10-11T01:31:47.855Z,6.28
2017-10-11T01:34:16.121Z,6.40
2017-10-11T01:36:44.337Z,7.68
2017-10-11T01:39:13.335Z,6.68
2017-10-11T01:41:42.315Z,6.07
2017-10-11T01:44:10.536Z,6.20
2017-10-11T01:46:38.762Z,7.62
2017-10-11T01:49:06.966Z,6.87
2017-10-11T01:51:35.928Z,6.72
2017-10-11T01:54:04.188Z,7.15
2017-10-11T01:56:32.430Z,7.65
2017-10-11T01:59:00.744Z,7.00
2017-10-11T02:01:29.001Z,7.00
2017-10-11T02:03:57.195Z,8.77
2017-10-11T02:06:25.387Z,9.23
2017-10-11T02:08:54.396Z,6.97
2017-10-11T02:11:23.370Z,6.65
2017-10-11T02:13:53.222Z,6.12
2017-10-11T02:16:21.420Z,7.62
2017-10-11T02:18:49.636Z,5.93
2017-10-11T02:21:18.743Z,9.88
2017-10-11T02:23:46.970Z,7.50
2017-10-11T02:26:15.181Z,5.65
2017-10-11T02:28:44.183Z,5.25
2017-10-11T02:31:13.325Z,7.25
2017-10-11T02:33:41.538Z,6.68
2017-10-11T02:36:10.511Z,6.18
2017-10-11T02:38:38.731Z,6.60
2017-10-11T02:41:07.002Z,5.47
2017-10-11T02:43:35.219Z,6.25
2017-10-11T02:46:03.602Z,6.28
2017-10-11T02:48:31.799Z,6.18
2017-10-11T02:51:00.806Z,6.20
2017-10-11T02:53:35.060Z,5.40
2017-10-11T02:56:03.299Z,7.87
2017-10-11T02:58:32.266Z,7.20
2017-10-11T03:01:00.494Z,7.43
2017-10-11T03:03:28.748Z,7.03
2017-10-11T03:05:57.358Z,5.80
2017-10-11T03:08:25.562Z,6.28
2017-10-11T03:10:53.807Z,5.25
2017-10-11T03:13:22.003Z,5.85
2017-10-11T03:15:50.264Z,8.32
2017-10-11T03:18:18.478Z,6.28
2017-10-11T03:20:47.477Z,6.80
2017-10-11T03:23:17.528Z,7.37
2017-10-11T03:25:45.839Z,7.87
2017-10-11T03:28:14.060Z,6.78
2017-10-11T03:30:42.276Z,6.55
2017-10-11T03:33:10.547Z,7.82
2017-10-11T03:35:38.753Z,6.57
2017-10-11T03:38:06.962Z,7.32
2017-10-11T03:40:35.151Z,6.62
2017-10-11T03:43:03.421Z,7.10
2017-10-11T03:45:31.636Z,7.60
2017-10-11T03:47:59.894Z,8.32
2017-10-11T03:50:28.134Z,7.87
2017-10-11T03:52:56.508Z,7.55
2017-10-11T03:55:24.720Z,8.30
2017-10-11T03:57:53.915Z,13.02
2017-10-11T04:00:22.162Z,7.78
2017-10-11T04:02:50.438Z,7.40
2017-10-11T04:05:19.110Z,7.78
2017-10-11T04:07:47.326Z,8.05
2017-10-11T04:10:16.089Z,8.57
2017-10-11T04:12:44.329Z,8.55
2017-10-11T04:15:13.484Z,8.25
2017-10-11T04:17:41.716Z,8.57
2017-10-11T04:20:10.077Z,8.80
2017-10-11T04:22:39.521Z,8.68
2017-10-11T04:25:07.805Z,9.80
2017-10-11T04:27:36.025Z,8.77
2017-10-11T04:30:04.230Z,9.48
2017-10-11T04:32:32.440Z,11.48
2017-10-11T04:35:00.716Z,11.40
2017-10-11T04:37:28.928Z,9.48
2017-10-11T04:39:59.091Z,8.93
2017-10-11T04:42:27.299Z,9.15
2017-10-11T04:44:56.878Z,18.65
2017-10-11T04:47:25.215Z,9.70
2017-10-11T04:49:53.481Z,9.05
2017-10-11T04:52:21.745Z,8.98
2017-10-11T04:54:50.748Z,10.88
2017-10-11T04:57:18.984Z,9.75
2017-10-11T04:59:47.228Z,9.68
2017-10-11T05:02:15.586Z,10.77
2017-10-11T05:04:44.041Z,11.45
2017-10-11T05:07:13.175Z,10.68
2017-10-11T05:09:41.412Z,9.95
2017-10-11T05:12:10.401Z,9.20
2017-10-11T05:14:38.718Z,10.75
2017-10-11T05:17:07.052Z,9.88
2017-10-11T05:19:35.306Z,10.70
2017-10-11T05:22:03.586Z,9.15
2017-10-11T05:24:31.848Z,10.52
2017-10-11T05:27:00.147Z,9.65
2017-10-11T05:29:28.357Z,8.23
2017-10-11T05:31:56.606Z,8.90
2017-10-11T05:34:25.627Z,8.95
2017-10-11T05:36:53.843Z,9.18
2017-10-11T05:39:22.099Z,9.15
2017-10-11T05:41:51.500Z,8.05
2017-10-11T05:44:19.726Z,10.55
2017-10-11T05:46:48.188Z,7.75
2017-10-11T05:49:16.512Z,8.55
2017-10-11T05:51:44.715Z,8.35
2017-10-11T05:54:12.969Z,7.65
2017-10-11T05:56:41.194Z,8.50
2017-10-11T05:59:09.418Z,8.65
2017-10-11T06:01:37.615Z,8.75
2017-10-11T06:04:06.283Z,10.50
2017-10-11T06:06:34.603Z,9.50
2017-10-11T06:09:02.847Z,8.68
2017-10-11T06:11:31.531Z,8.82
2017-10-11T06:13:59.839Z,8.40
2017-10-11T06:16:28.837Z,9.35
2017-10-11T06:18:57.826Z,10.40
2017-10-11T06:21:26.030Z,8.55
2017-10-11T06:23:54.309Z,8.00
2017-10-11T06:26:22.575Z,8.73
2017-10-11T06:28:50.790Z,8.40
2017-10-11T06:31:19.438Z,8.55
2017-10-11T06:33:48.455Z,7.55
2017-10-11T06:36:16.653Z,7.50
2017-10-11T06:38:44.879Z,7.95
2017-10-11T06:41:13.128Z,8.77
2017-10-11T06:43:42.155Z,8.30
2017-10-11T06:46:10.363Z,7.35
2017-10-11T06:48:38.578Z,8.70
2017-10-11T06:51:07.561Z,8.48
2017-10-11T06:53:37.341Z,8.82
2017-10-11T06:56:05.548Z,10.55
2017-10-11T06:58:34.502Z,7.78
2017-10-11T07:01:03.183Z,8.63
2017-10-11T07:03:31.442Z,9.10
2017-10-11T07:05:59.676Z,8.27
2017-10-11T07:08:28.669Z,8.45
2017-10-11T07:10:57.661Z,8.88
2017-10-11T07:13:26.750Z,9.63
2017-10-11T07:15:55.743Z,7.82
2017-10-11T07:18:24.748Z,8.18
2017-10-11T07:20:53.018Z,12.32
2017-10-11T07:23:25.257Z,7.47
2017-10-11T07:25:53.974Z,8.55
2017-10-11T07:28:23.031Z,6.95
2017-10-11T07:30:51.418Z,6.60
2017-10-11T07:33:19.624Z,7.10
2017-10-11T07:35:47.900Z,7.40
2017-10-11T07:38:16.171Z,8.45
2017-10-11T07:40:45.329Z,7.20
2017-10-11T07:43:13.572Z,6.72
2017-10-11T07:45:41.922Z,6.35
2017-10-11T07:48:10.311Z,5.80
2017-10-11T07:50:38.588Z,6.82
2017-10-11T07:53:06.812Z,6.18
2017-10-11T07:55:35.640Z,6.85
2017-10-11T07:58:03.874Z,6.68
2017-10-11T08:00:32.976Z,5.32
2017-10-11T08:03:03.157Z,6.68
2017-10-11T08:05:31.418Z,6.93
2017-10-11T08:07:59.649Z,6.50
2017-10-11T08:10:28.633Z,5.90
2017-10-11T08:12:56.911Z,6.53
2017-10-11T08:15:25.912Z,5.53
2017-10-11T08:17:54.459Z,5.25
2017-10-11T08:20:22.711Z,5.55
2017-10-11T08:22:51.477Z,5.57
2017-10-11T08:25:20.489Z,5.28
2017-10-11T08:27:48.794Z,5.20
2017-10-11T08:30:17.067Z,5.15
2017-10-11T08:32:45.337Z,4.55
2017-10-11T08:35:15.237Z,5.43
2017-10-11T08:37:43.519Z,6.43
2017-10-11T08:40:11.793Z,4.80
2017-10-11T08:42:40.830Z,4.00
2017-10-11T08:45:10.316Z,5.22
2017-10-11T08:47:38.549Z,3.90
2017-10-11T08:50:06.872Z,4.97
2017-10-11T08:52:35.204Z,4.32
2017-10-11T08:55:03.412Z,3.33
2017-10-11T08:57:31.616Z,5.93
2017-10-11T09:00:00.676Z,3.90
2017-10-11T09:02:28.883Z,3.70
2017-10-11T09:04:57.936Z,4.95
2017-10-11T09:07:26.156Z,3.22
2017-10-11T09:09:55.147Z,3.45
2017-10-11T09:12:24.122Z,3.08
2017-10-11T09:14:52.437Z,3.12
2017-10-11T09:17:20.864Z,3.37
2017-10-11T09:19:49.093Z,2.90
2017-10-11T09:22:17.326Z,2.80
2017-10-11T09:24:45.548Z,2.60
2017-10-11T09:27:13.795Z,3.05
2017-10-11T09:29:42.155Z,3.12
2017-10-11T09:32:11.147Z,2.40
2017-10-11T09:34:40.129Z,2.92
2017-10-11T09:37:08.368Z,2.60
2017-10-11T09:39:37.286Z,2.75
2017-10-11T09:42:05.526Z,2.75
2017-10-11T09:44:33.723Z,2.40
2017-10-11T09:47:01.965Z,3.58
2017-10-11T09:49:30.229Z,2.55
2017-10-11T09:51:58.427Z,2.30
2017-10-11T09:54:26.625Z,2.78
2017-10-11T09:56:54.969Z,2.60
2017-10-11T09:59:24.066Z,2.60
2017-10-11T10:01:52.313Z,2.47
2017-10-11T10:04:21.292Z,2.58
2017-10-11T10:06:50.328Z,2.53
2017-10-11T10:09:18.924Z,2.80
2017-10-11T10:11:47.179Z,2.97
2017-10-11T10:14:15.398Z,2.75
2017-10-11T10:16:43.616Z,2.72
2017-10-11T10:19:11.839Z,3.92
2017-10-11T10:21:40.522Z,2.92
2017-10-11T10:24:08.723Z,2.80
2017-10-11T10:26:37.715Z,4.07
2017-10-11T10:29:06.797Z,3.37
2017-10-11T10:31:35.220Z,4.68
2017-10-11T10:34:04.132Z,3.80
2017-10-11T10:36:32.395Z,3.72
2017-10-11T10:39:00.647Z,4.78
2017-10-11T10:41:28.955Z,4.70
2017-10-11T10:43:57.161Z,4.43
2017-10-11T10:46:25.401Z,4.70
2017-10-11T10:48:53.658Z,5.00
2017-10-11T10:51:22.192Z,5.62
2017-10-11T10:53:50.391Z,5.32
2017-10-11T10:56:18.717Z,5.50
2017-10-11T10:58:47.000Z,5.62
2017-10-11T11:01:15.218Z,5.75
2017-10-11T11:03:44.263Z,5.22
2017-10-11T11:06:13.689Z,6.47
2017-10-11T11:08:42.692Z,6.15
2017-10-11T11:11:16.530Z,4.95
2017-10-11T11:13:54.429Z,6.00
2017-10-11T11:16:23.156Z,5.72
2017-10-11T11:18:51.492Z,6.28
2017-10-11T11:21:19.743Z,5.32
2017-10-11T11:23:48.967Z,5.70
2017-10-11T11:26:17.242Z,7.12
2017-10-11T11:28:45.561Z,5.65
2017-10-11T11:31:13.785Z,6.05
2017-10-11T11:33:42.032Z,7.80
2017-10-11T11:36:10.244Z,7.50
2017-10-11T11:38:38.452Z,6.25
2017-10-11T11:41:06.722Z,6.22
2017-10-11T11:43:35.013Z,8.60
2017-10-11T11:46:03.308Z,7.47
2017-10-11T11:48:31.528Z,6.37
2017-10-11T11:50:59.787Z,6.15
2017-10-11T11:53:27.999Z,6.37
2017-10-11T11:55:56.228Z,6.50
2017-10-11T11:58:24.473Z,10.15
2017-10-11T12:00:52.676Z,7.10
2017-10-11T12:03:21.311Z,6.57
2017-10-11T12:05:50.467Z,6.05
2017-10-11T12:08:19.184Z,7.57
2017-10-11T12:10:47.476Z,6.62
2017-10-11T12:13:15.687Z,7.00
2017-10-11T12:15:44.698Z,7.25
2017-10-11T12:18:13.154Z,7.37
2017-10-11T12:20:43.017Z,7.75
2017-10-11T12:23:13.373Z,6.70
2017-10-11T12:25:43.627Z,7.10
2017-10-11T12:35:31.473Z,6.60
2017-10-11T12:38:02.506Z,6.95
2017-10-11T12:40:32.002Z,6.62
2017-10-11T12:43:05.981Z,6.70
2017-10-11T12:45:35.688Z,6.80
2017-10-11T12:48:04.165Z,7.65
2017-10-11T12:50:32.460Z,6.85
2017-10-11T12:53:00.910Z,6.53
2017-10-11T12:55:30.973Z,6.53
2017-10-11T12:58:02.945Z,7.25
2017-10-11T13:00:32.119Z,6.53
2017-10-11T13:03:02.433Z,6.40
2017-10-11T13:05:36.740Z,7.12
2017-10-11T13:08:06.097Z,6.62
2017-10-11T13:10:36.156Z,5.75
2017-10-11T13:13:04.445Z,7.45
2017-10-11T13:15:36.634Z,5.87
2017-10-11T13:18:05.692Z,6.62
2017-10-11T13:20:34.058Z,6.28
2017-10-11T13:23:03.892Z,6.10
2017-10-11T13:28:33.613Z,6.55
2017-10-11T13:31:02.093Z,6.43
2017-10-11T13:33:31.177Z,6.43
2017-10-11T13:35:59.573Z,6.25
2017-10-11T13:38:28.655Z,7.03
2017-10-11T13:40:56.998Z,6.15
2017-10-11T13:43:26.442Z,7.28
2017-10-11T13:45:54.717Z,6.37
2017-10-11T13:48:22.957Z,6.75
2017-10-11T13:50:51.835Z,5.78
2017-10-11T13:53:20.136Z,6.30
2017-10-11T13:55:48.439Z,5.90
2017-10-11T13:58:16.749Z,7.43
2017-10-11T14:00:45.745Z,6.85
2017-10-11T14:03:14.755Z,7.70
2017-10-11T14:05:43.027Z,7.93
2017-10-11T14:08:11.626Z,6.43
2017-10-11T14:10:39.844Z,5.82
2017-10-11T14:13:09.305Z,5.50
2017-10-11T14:15:37.587Z,7.40
2017-10-11T14:18:05.899Z,5.97
2017-10-11T14:20:34.921Z,6.75
2017-10-11T14:23:04.019Z,6.43
2017-10-11T14:25:32.363Z,6.95
2017-10-11T14:28:00.637Z,6.80
2017-10-11T14:30:28.921Z,6.62
2017-10-11T14:32:58.208Z,8.15
2017-10-11T14:35:26.524Z,7.20
2017-10-11T14:38:06.494Z,6.18
2017-10-11T14:40:34.747Z,6.05
2017-10-11T14:43:05.449Z,6.40
2017-10-11T14:45:35.461Z,7.12
2017-10-11T14:48:03.737Z,5.72
2017-10-11T14:50:32.035Z,7.03
2017-10-11T14:53:01.108Z,6.45
2017-10-11T14:55:29.344Z,6.10
2017-10-11T14:57:57.833Z,6.65
2017-10-11T15:00:26.183Z,6.90
2017-10-11T15:02:54.585Z,5.95
2017-10-11T15:05:25.778Z,6.55
2017-10-11T15:08:06.894Z,6.20
2017-10-11T15:10:36.242Z,6.37
2017-10-11T15:13:07.416Z,4.70
2017-10-11T15:15:37.248Z,6.37
2017-10-11T15:18:05.603Z,5.80
2017-10-11T15:20:34.744Z,6.00
2017-10-11T15:23:04.366Z,5.65
2017-10-11T15:25:34.133Z,5.80
2017-10-11T15:28:04.936Z,5.30
2017-10-11T15:30:34.233Z,6.00
2017-10-11T15:33:03.289Z,5.85
2017-10-11T15:35:31.532Z,5.55
2017-10-11T15:38:00.497Z,5.12
2017-10-11T15:40:28.807Z,4.80
2017-10-11T15:42:57.108Z,5.37
2017-10-11T15:45:25.652Z,4.78
2017-10-11T15:47:54.621Z,4.57
2017-10-11T15:50:22.832Z,4.62
2017-10-11T15:52:51.110Z,4.15
2017-10-11T15:55:19.347Z,4.00
2017-10-11T15:57:48.845Z,3.97
2017-10-11T16:00:17.079Z,4.30
2017-10-11T16:02:45.364Z,4.05
2017-10-11T16:05:13.698Z,3.85
2017-10-11T16:07:42.115Z,3.30
2017-10-11T16:10:10.417Z,3.83
2017-10-11T16:12:38.938Z,4.00
2017-10-11T16:15:07.279Z,3.60
2017-10-11T16:17:35.608Z,4.00
2017-10-11T16:20:03.888Z,3.22
2017-10-11T16:22:32.157Z,3.80
2017-10-11T16:25:00.404Z,5.10
2017-10-11T16:27:33.198Z,4.25
2017-10-11T16:30:02.267Z,6.03
2017-10-11T16:32:30.503Z,3.72
2017-10-11T16:34:58.862Z,3.15
2017-10-11T16:37:27.246Z,2.60
2017-10-11T16:39:55.515Z,3.33
2017-10-11T16:42:23.794Z,3.00
2017-10-11T16:44:52.171Z,3.40
2017-10-11T16:47:20.577Z,3.60
2017-10-11T16:49:48.823Z,4.78
2017-10-11T16:52:17.127Z,2.95
2017-10-11T16:54:46.229Z,3.92
2017-10-11T16:57:14.515Z,3.08
2017-10-11T16:59:43.533Z,3.50
2017-10-11T17:02:12.601Z,3.60
2017-10-11T17:04:43.291Z,2.90
2017-10-11T17:07:11.629Z,3.17
2017-10-11T17:09:48.486Z,3.35
2017-10-11T17:12:17.636Z,3.10
2017-10-11T17:14:46.233Z,3.10
2017-10-11T17:17:16.046Z,3.45
2017-10-11T17:19:44.317Z,3.75
2017-10-11T17:22:12.562Z,3.67
2017-10-11T17:24:41.169Z,3.42
2017-10-11T17:27:09.497Z,3.03
2017-10-11T17:29:41.302Z,3.70
2017-10-11T17:32:10.512Z,3.50
2017-10-11T17:34:40.432Z,3.67
2017-10-11T17:37:10.122Z,3.62
2017-10-11T17:39:39.434Z,3.03
2017-10-11T17:42:07.829Z,3.40
2017-10-11T17:44:36.054Z,3.67
2017-10-11T17:47:06.909Z,4.25
2017-10-11T17:49:38.968Z,3.92
2017-10-11T17:55:06.459Z,5.43
2017-10-11T17:57:35.908Z,3.37
2017-10-11T18:00:04.954Z,3.60
2017-10-11T18:02:33.298Z,3.55
2017-10-11T18:05:01.605Z,3.55
2017-10-11T18:07:31.311Z,3.40
2017-10-11T18:10:00.415Z,3.12
2017-10-11T18:12:29.663Z,3.92
2017-10-11T18:14:58.836Z,3.85
2017-10-11T18:17:32.664Z,4.05
2017-10-11T18:20:00.943Z,3.80
2017-10-11T18:25:10.360Z,4.45
2017-10-11T18:27:38.711Z,4.20
2017-10-11T18:30:10.492Z,6.30
2017-10-11T18:32:42.136Z,3.25
2017-10-11T18:35:12.460Z,4.10
2017-10-11T18:37:47.387Z,5.43
2017-10-11T18:40:15.688Z,4.45
2017-10-11T18:42:44.347Z,4.07
2017-10-11T18:45:12.665Z,3.78
2017-10-11T18:47:40.957Z,4.30
2017-10-11T18:50:10.513Z,4.25
2017-10-11T18:52:40.051Z,4.10
2017-10-11T18:55:09.033Z,4.40
2017-10-11T18:57:37.314Z,4.30
2017-10-11T19:00:06.383Z,4.93
2017-10-11T19:02:34.684Z,4.00
2017-10-11T19:05:05.480Z,5.40
2017-10-11T19:07:33.884Z,4.93
2017-10-11T19:10:04.048Z,4.55
2017-10-11T19:12:35.463Z,4.50
2017-10-11T19:15:07.467Z,5.10
2017-10-11T19:17:43.322Z,4.30
2017-10-11T19:20:11.653Z,5.18
2017-10-11T19:22:42.067Z,5.22
2017-10-11T19:25:11.116Z,4.50
2017-10-11T19:27:40.219Z,4.78
2017-10-11T19:30:09.237Z,4.90
2017-10-11T19:32:39.012Z,4.72
2017-10-11T19:35:08.767Z,4.70
2017-10-11T19:37:37.922Z,4.60
2017-10-11T19:40:06.236Z,4.95
2017-10-11T19:42:34.528Z,4.82
2017-10-11T19:45:03.653Z,4.85
2017-10-11T19:47:32.355Z,4.95
2017-10-11T19:50:18.932Z,6.97
2017-10-11T19:52:48.401Z,5.35
2017-10-11T19:55:16.710Z,4.18
2017-10-11T19:57:48.040Z,5.72
2017-10-11T20:00:27.021Z,4.55
2017-10-11T20:02:55.399Z,4.43
2017-10-11T20:05:23.702Z,5.03
2017-10-11T20:07:51.890Z,4.78
2017-10-11T20:10:20.190Z,5.20
2017-10-11T20:12:48.442Z,4.90
2017-10-11T20:15:17.591Z,4.15
2017-10-11T20:17:52.043Z,4.40
2017-10-11T20:20:20.340Z,4.30
2017-10-11T20:22:49.456Z,4.53
2017-10-11T20:25:17.754Z,5.28
2017-10-11T20:28:00.071Z,5.43
2017-10-11T20:30:45.926Z,4.80
2017-10-11T20:33:17.200Z,4.47
2017-10-11T20:35:45.525Z,6.25
2017-10-11T20:38:14.607Z,4.40
2017-10-11T20:40:43.685Z,3.95
2017-10-11T20:43:13.647Z,4.85
2017-10-11T20:45:43.224Z,3.80
2017-10-11T20:48:13.363Z,4.90
2017-10-11T20:50:42.345Z,4.37
2017-10-11T20:55:49.306Z,4.00
2017-10-11T20:58:18.899Z,4.22
2017-10-11T21:00:47.145Z,4.00
2017-10-11T21:03:15.376Z,4.05
2017-10-11T21:05:44.036Z,4.62
2017-10-11T21:08:12.293Z,3.90
2017-10-11T21:10:41.331Z,4.18
2017-10-11T21:13:10.591Z,3.83
2017-10-11T21:15:38.987Z,4.53
2017-10-11T21:18:07.197Z,4.28
2017-10-11T21:20:35.987Z,4.10
2017-10-11T21:23:05.036Z,7.37
2017-10-11T21:25:36.723Z,7.68
2017-10-11T21:28:06.138Z,4.40
2017-10-11T21:30:35.118Z,6.47
2017-10-11T21:33:04.724Z,4.70
2017-10-11T21:35:33.796Z,4.40
2017-10-11T21:38:02.038Z,4.30
2017-10-11T21:40:30.320Z,5.53
2017-10-11T21:42:58.723Z,4.30
2017-10-11T21:45:33.600Z,4.20
2017-10-11T21:48:10.392Z,4.80
2017-10-11T21:50:38.716Z,4.60
2017-10-11T21:53:06.924Z,4.65
2017-10-11T21:55:35.945Z,4.20
2017-10-11T21:58:04.177Z,5.12
2017-10-11T22:00:46.333Z,4.18
2017-10-11T22:03:25.120Z,4.28
2017-10-11T22:05:53.467Z,4.40
2017-10-11T22:11:11.878Z,3.95
2017-10-11T22:14:00.133Z,4.65
2017-10-11T22:16:36.757Z,4.50
2017-10-11T22:19:15.681Z,4.00
2017-10-11T22:22:03.072Z,4.20
2017-10-11T22:24:33.421Z,4.45
2017-10-11T22:27:01.908Z,4.25
2017-10-11T22:29:31.037Z,4.40
2017-10-11T22:32:02.368Z,4.00
2017-10-11T22:34:30.619Z,4.40
2017-10-11T22:36:58.827Z,4.43
2017-10-11T22:39:28.748Z,4.95
2017-10-11T22:41:57.356Z,4.00
2017-10-11T22:44:25.575Z,4.87
2017-10-11T22:46:54.672Z,5.18
2017-10-11T22:49:23.652Z,5.07
2017-10-11T22:51:52.654Z,4.20
2017-10-11T22:54:22.068Z,4.72
2017-10-11T22:56:50.434Z,3.80
2017-10-11T22:59:19.474Z,5.10
2017-10-11T23:01:47.852Z,4.93
2017-10-11T23:04:16.054Z,4.62
2017-10-11T23:06:44.287Z,6.15
2017-10-11T23:09:13.095Z,5.10
2017-10-11T23:11:42.358Z,5.35
2017-10-11T23:14:10.582Z,5.00
2017-10-11T23:16:38.763Z,5.15
2017-10-11T23:19:07.235Z,4.97
2017-10-11T23:21:35.543Z,4.60
2017-10-11T23:24:04.569Z,5.82
2017-10-11T23:26:33.693Z,5.20
2017-10-11T23:29:01.908Z,4.50
2017-10-11T23:31:30.927Z,5.82
2017-10-11T23:33:59.243Z,5.05
2017-10-11T23:36:27.486Z,5.28
2017-10-11T23:38:55.691Z,4.72
2017-10-11T23:41:23.883Z,5.87
2017-10-11T23:43:52.874Z,5.10
2017-10-11T23:46:21.852Z,5.47
2017-10-11T23:48:50.043Z,5.03
2017-10-11T23:51:19.024Z,5.40
2017-10-11T23:53:47.261Z,5.68
2017-10-11T23:56:15.484Z,5.70
2017-10-11T23:58:44.506Z,5.85
